createdAt,value
2023-01-07T00:00:39.202Z,4.24
2023-01-07T00:03:11.322Z,4.25
2023-01-07T00:05:47.765Z,4.26
2023-01-07T00:08:28.419Z,4.30
2023-01-07T00:11:13.257Z,4.39
2023-01-07T00:14:09.575Z,4.43
2023-01-07T00:16:44.912Z,4.44
2023-01-07T00:19:35.847Z,4.60
2023-01-07T00:22:08.574Z,4.59
2023-01-07T00:24:49.815Z,4.67
2023-01-07T00:27:32.738Z,4.67
2023-01-07T00:30:22.513Z,4.97
2023-01-07T00:33:12.321Z,4.94
2023-01-07T00:36:01.186Z,4.90
2023-01-07T00:38:37.870Z,4.78
2023-01-07T00:41:13.751Z,4.93
2023-01-07T00:43:55.730Z,4.97
2023-01-07T00:46:39.155Z,4.74
2023-01-07T00:49:20.121Z,4.91
2023-01-07T00:52:00.300Z,4.87
2023-01-07T00:54:41.727Z,4.84
2023-01-07T00:57:22.560Z,4.83
2023-01-07T01:00:09.850Z,4.79
2023-01-07T01:02:51.088Z,4.84
2023-01-07T01:05:27.071Z,4.96
2023-01-07T01:08:09.422Z,4.87
2023-01-07T01:10:53.522Z,4.74
2023-01-07T01:13:41.395Z,4.75
2023-01-07T01:16:26.071Z,4.88
2023-01-07T01:19:12.225Z,4.83
2023-01-07T01:22:00.774Z,4.76
2023-01-07T01:24:41.386Z,4.81
2023-01-07T01:27:20.011Z,4.82
2023-01-07T01:29:59.162Z,4.87
2023-01-07T01:32:48.789Z,4.91
2023-01-07T01:35:29.654Z,4.91
2023-01-07T01:38:21.633Z,5.00
2023-01-07T01:40:59.810Z,4.96
2023-01-07T01:43:48.013Z,5.03
2023-01-07T01:46:39.563Z,5.03
2023-01-07T01:50:03.109Z,5.07
2023-01-07T01:52:57.190Z,5.20
2023-01-07T01:56:10.800Z,5.21
2023-01-07T01:58:59.262Z,5.21
2023-01-07T02:01:35.549Z,5.14
2023-01-07T02:04:20.160Z,5.05
2023-01-07T02:07:13.294Z,5.05
2023-01-07T02:10:26.853Z,5.22
2023-01-07T02:13:33.570Z,5.17
2023-01-07T02:16:35.961Z,5.02
2023-01-07T02:19:35.313Z,5.11
2023-01-07T02:22:39.728Z,5.02
2023-01-07T02:25:42.208Z,4.96
2023-01-07T02:28:30.324Z,4.93
2023-01-07T02:31:19.843Z,4.88
2023-01-07T02:34:35.994Z,4.94
2023-01-07T02:37:37.609Z,4.96
2023-01-07T02:40:22.809Z,4.87
2023-01-07T02:43:28.448Z,4.91
2023-01-07T02:46:35.672Z,4.79
2023-01-07T02:49:19.370Z,4.84
2023-01-07T02:51:58.760Z,4.87
2023-01-07T02:54:39.981Z,4.93
2023-01-07T02:57:23.741Z,4.82
2023-01-07T03:00:26.895Z,4.81
2023-01-07T03:03:26.499Z,4.69
2023-01-07T03:06:29.433Z,4.77
2023-01-07T03:09:17.857Z,4.81
2023-01-07T03:12:03.853Z,4.82
2023-01-07T03:14:52.603Z,4.89
2023-01-07T03:17:49.536Z,4.85
2023-01-07T03:20:34.990Z,4.82
2023-01-07T03:23:12.818Z,4.72
2023-01-07T03:25:50.719Z,4.80
2023-01-07T03:28:35.276Z,4.83
2023-01-07T03:31:23.913Z,4.89
2023-01-07T03:34:06.413Z,4.65
2023-01-07T03:37:03.218Z,4.61
2023-01-07T03:39:41.173Z,4.43
2023-01-07T03:42:39.984Z,4.31
2023-01-07T03:45:23.039Z,4.19
2023-01-07T03:48:09.807Z,4.20
2023-01-07T03:50:46.206Z,4.16
2023-01-07T03:53:19.221Z,3.94
2023-01-07T03:55:52.777Z,3.93
2023-01-07T03:58:33.235Z,3.73
2023-01-07T04:01:11.864Z,3.70
2023-01-07T04:03:52.977Z,3.59
2023-01-07T04:06:29.743Z,3.48
2023-01-07T04:09:21.689Z,3.37
2023-01-07T04:12:06.696Z,3.28
2023-01-07T04:14:59.494Z,3.20
2023-01-07T04:17:38.637Z,3.02
2023-01-07T04:20:22.640Z,2.94
2023-01-07T04:22:57.460Z,2.87
2023-01-07T04:25:39.377Z,2.77
2023-01-07T04:28:26.359Z,2.71
2023-01-07T04:31:07.397Z,2.75
2023-01-07T04:33:42.884Z,2.66
2023-01-07T04:36:18.282Z,2.59
2023-01-07T04:39:02.682Z,2.43
2023-01-07T04:41:43.650Z,2.42
2023-01-07T04:44:18.225Z,2.40
2023-01-07T04:46:55.341Z,2.23
2023-01-07T04:49:33.752Z,2.11
2023-01-07T04:52:09.803Z,2.07
2023-01-07T04:54:57.695Z,1.93
2023-01-07T04:57:33.446Z,2.12
2023-01-07T05:00:10.291Z,2.12
2023-01-07T05:02:49.229Z,2.09
2023-01-07T05:05:37.249Z,2.07
2023-01-07T05:08:17.777Z,1.98
2023-01-07T05:10:59.988Z,1.99
2023-01-07T05:13:35.472Z,1.93
2023-01-07T05:16:12.510Z,1.91
2023-01-07T05:19:07.189Z,1.90
2023-01-07T05:21:52.612Z,1.81
2023-01-07T05:24:34.186Z,1.80
2023-01-07T05:27:19.515Z,1.66
2023-01-07T05:29:54.520Z,1.69
2023-01-07T05:32:41.316Z,1.66
2023-01-07T05:35:22.830Z,1.65
2023-01-07T05:38:04.255Z,1.57
2023-01-07T05:40:43.799Z,1.50
2023-01-07T05:43:25.240Z,1.33
2023-01-07T05:46:06.071Z,1.33
2023-01-07T05:48:47.653Z,1.20
2023-01-07T05:51:17.767Z,1.31
2023-01-07T05:54:01.957Z,1.34
2023-01-07T05:56:42.723Z,1.38
2023-01-07T05:59:23.026Z,1.32
2023-01-07T06:02:08.269Z,1.28
2023-01-07T06:04:45.151Z,1.29
2023-01-07T06:07:25.815Z,1.28
2023-01-07T06:10:12.037Z,1.27
2023-01-07T06:12:45.958Z,1.28
2023-01-07T06:15:44.714Z,1.24
2023-01-07T06:18:25.478Z,1.32
2023-01-07T06:21:09.720Z,1.30
2023-01-07T06:23:45.041Z,1.32
2023-01-07T06:26:25.503Z,1.19
2023-01-07T06:28:58.648Z,1.17
2023-01-07T06:31:31.366Z,1.21
2023-01-07T06:34:11.634Z,1.27
2023-01-07T06:36:48.788Z,1.33
2023-01-07T06:39:29.425Z,1.47
2023-01-07T06:42:10.128Z,1.48
2023-01-07T06:44:54.086Z,1.51
2023-01-07T06:47:34.386Z,1.52
2023-01-07T06:50:10.807Z,1.56
2023-01-07T06:52:49.015Z,1.59
2023-01-07T06:55:32.462Z,1.64
2023-01-07T06:58:10.901Z,1.77
2023-01-07T07:00:42.957Z,1.91
2023-01-07T07:03:45.736Z,1.95
2023-01-07T07:06:28.483Z,1.92
2023-01-07T07:09:05.587Z,2.01
2023-01-07T07:11:41.727Z,2.12
2023-01-07T07:14:19.304Z,2.22
2023-01-07T07:17:02.443Z,2.18
2023-01-07T07:19:40.507Z,2.28
2023-01-07T07:22:22.593Z,2.45
2023-01-07T07:25:03.282Z,2.47
2023-01-07T07:27:42.567Z,2.60
2023-01-07T07:30:45.561Z,2.72
2023-01-07T07:33:27.714Z,2.90
2023-01-07T07:36:05.694Z,2.97
2023-01-07T07:38:47.477Z,3.06
2023-01-07T07:41:33.453Z,3.11
2023-01-07T07:44:14.663Z,3.17
2023-01-07T07:46:55.975Z,3.27
2023-01-07T07:49:34.260Z,3.38
2023-01-07T07:52:15.017Z,3.63
2023-01-07T07:55:20.757Z,3.73
2023-01-07T07:58:10.392Z,3.79
2023-01-07T08:00:56.030Z,3.77
2023-01-07T08:03:39.781Z,3.76
2023-01-07T08:06:18.251Z,3.87
2023-01-07T08:08:59.974Z,4.01
2023-01-07T08:11:35.152Z,4.03
2023-01-07T08:14:16.395Z,4.15
2023-01-07T08:17:03.418Z,4.36
2023-01-07T08:19:38.511Z,4.45
2023-01-07T08:22:23.275Z,4.53
2023-01-07T08:25:01.441Z,4.68
2023-01-07T08:27:39.983Z,4.83
2023-01-07T08:30:21.626Z,4.97
2023-01-07T08:33:00.413Z,5.12
2023-01-07T08:35:41.020Z,5.28
2023-01-07T08:38:18.418Z,5.49
2023-01-07T08:40:57.694Z,5.59
2023-01-07T08:43:42.052Z,5.57
2023-01-07T08:46:27.848Z,5.64
2023-01-07T08:49:06.039Z,5.70
2023-01-07T08:51:46.874Z,5.67
2023-01-07T08:54:19.043Z,5.81
2023-01-07T08:57:02.720Z,5.78
2023-01-07T08:59:47.398Z,5.88
2023-01-07T09:02:32.003Z,5.98
2023-01-07T09:05:08.341Z,6.02
2023-01-07T09:07:56.847Z,5.99
2023-01-07T09:10:30.783Z,6.27
2023-01-07T09:13:11.119Z,6.36
2023-01-07T09:15:48.753Z,6.41
2023-01-07T09:18:29.137Z,6.64
2023-01-07T09:21:03.605Z,6.73
2023-01-07T09:23:36.847Z,6.88
2023-01-07T09:26:25.355Z,7.08
2023-01-07T09:29:08.751Z,7.15
2023-01-07T09:31:58.195Z,7.33
2023-01-07T09:34:32.596Z,7.43
2023-01-07T09:37:28.692Z,7.54
2023-01-07T09:40:07.675Z,7.59
2023-01-07T09:43:13.785Z,7.76
2023-01-07T09:46:08.880Z,7.81
2023-01-07T09:48:50.667Z,7.99
2023-01-07T09:51:40.851Z,8.10
2023-01-07T09:54:33.217Z,8.26
2023-01-07T09:57:09.452Z,8.26
2023-01-07T10:00:03.656Z,8.38
2023-01-07T10:02:44.378Z,8.41
2023-01-07T10:05:47.942Z,8.56
2023-01-07T10:09:01.239Z,8.66
2023-01-07T10:12:00.621Z,8.86
2023-01-07T10:14:51.650Z,8.92
2023-01-07T10:17:37.285Z,8.95
2023-01-07T10:20:37.643Z,8.97
2023-01-07T10:23:36.421Z,8.98
2023-01-07T10:26:32.804Z,9.09
2023-01-07T10:29:42.999Z,9.24
2023-01-07T10:32:30.918Z,9.29
2023-01-07T10:35:11.551Z,9.35
2023-01-07T10:37:48.015Z,9.38
2023-01-07T10:40:45.515Z,9.56
2023-01-07T10:44:00.089Z,9.66
2023-01-07T10:47:14.926Z,9.67
2023-01-07T10:50:30.753Z,9.70
2023-01-07T10:53:25.439Z,9.72
2023-01-07T10:56:09.791Z,9.75
2023-01-07T10:58:57.931Z,9.85
2023-01-07T11:01:45.543Z,9.96
2023-01-07T11:04:24.642Z,9.92
2023-01-07T11:07:35.163Z,10.10
2023-01-07T11:10:20.502Z,10.23
2023-01-07T11:13:16.253Z,10.10
2023-01-07T11:16:14.029Z,10.09
2023-01-07T11:19:16.601Z,10.19
2023-01-07T11:21:51.790Z,10.20
2023-01-07T11:24:36.230Z,10.22
2023-01-07T11:27:33.704Z,10.20
2023-01-07T11:30:33.914Z,10.35
2023-01-07T11:34:02.305Z,10.44
2023-01-07T11:36:55.794Z,10.41
2023-01-07T11:39:32.898Z,10.42
2023-01-07T11:42:40.548Z,10.43
2023-01-07T11:45:30.023Z,10.36
2023-01-07T11:48:24.536Z,10.52
2023-01-07T11:51:05.967Z,10.48
2023-01-07T11:53:56.748Z,10.50
2023-01-07T11:56:35.920Z,10.62
2023-01-07T11:59:26.008Z,10.50
2023-01-07T12:02:07.250Z,10.63
2023-01-07T12:04:53.348Z,10.63
2023-01-07T12:07:30.911Z,10.56
2023-01-07T12:10:06.232Z,10.65
2023-01-07T12:12:48.239Z,10.64
2023-01-07T12:15:37.602Z,10.85
2023-01-07T12:18:49.472Z,10.70
2023-01-07T12:21:58.199Z,10.76
2023-01-07T12:24:59.580Z,10.74
2023-01-07T12:27:56.772Z,10.79
2023-01-07T12:31:30.628Z,10.84
2023-01-07T12:34:30.005Z,10.82
2023-01-07T12:37:11.110Z,10.74
2023-01-07T12:40:07.306Z,10.82
2023-01-07T12:42:52.242Z,10.78
2023-01-07T12:46:00.399Z,10.53
2023-01-07T12:48:59.174Z,10.54
2023-01-07T12:52:01.252Z,10.58
2023-01-07T12:54:53.258Z,10.58
2023-01-07T12:57:45.771Z,10.58
2023-01-07T13:00:34.646Z,10.40
2023-01-07T13:03:47.323Z,10.43
2023-01-07T13:06:55.483Z,10.39
2023-01-07T13:09:45.970Z,10.37
2023-01-07T13:12:45.594Z,10.09
2023-01-07T13:15:37.766Z,10.24
2023-01-07T13:18:27.607Z,10.21
2023-01-07T13:21:17.698Z,10.15
2023-01-07T13:24:54.835Z,10.13
2023-01-07T13:27:43.639Z,10.18
2023-01-07T13:30:42.025Z,10.01
2023-01-07T13:33:42.320Z,10.06
2023-01-07T13:36:37.227Z,9.96
2023-01-07T13:39:58.829Z,9.78
2023-01-07T13:43:05.087Z,9.72
2023-01-07T13:45:49.159Z,9.57
2023-01-07T13:48:34.778Z,9.63
2023-01-07T13:51:17.911Z,9.71
2023-01-07T13:54:15.637Z,9.64
2023-01-07T13:57:02.086Z,9.67
2023-01-07T14:00:02.644Z,9.61
2023-01-07T14:03:02.201Z,9.44
2023-01-07T14:05:37.687Z,9.45
2023-01-07T14:08:21.662Z,9.39
2023-01-07T14:11:01.543Z,9.22
2023-01-07T14:14:29.145Z,9.20
2023-01-07T14:17:42.994Z,9.20
2023-01-07T14:20:33.536Z,8.99
2023-01-07T14:23:44.508Z,8.81
2023-01-07T14:26:42.639Z,8.74
2023-01-07T14:29:45.544Z,8.62
2023-01-07T14:32:34.434Z,8.50
2023-01-07T14:35:40.598Z,8.30
2023-01-07T14:38:36.756Z,8.29
2023-01-07T14:41:19.379Z,8.29
2023-01-07T14:44:12.736Z,8.04
2023-01-07T14:46:50.094Z,8.02
2023-01-07T14:50:18.359Z,7.74
2023-01-07T14:52:57.634Z,7.68
2023-01-07T14:55:41.536Z,7.55
2023-01-07T14:58:32.396Z,7.43
2023-01-07T15:01:47.030Z,7.33
2023-01-07T15:05:13.093Z,7.25
2023-01-07T15:08:19.962Z,7.18
2023-01-07T15:11:35.348Z,6.94
2023-01-07T15:15:00.811Z,6.80
2023-01-07T15:17:48.139Z,6.26
2023-01-07T15:20:39.445Z,6.12
2023-01-07T15:23:31.415Z,6.04
2023-01-07T15:26:33.723Z,5.83
2023-01-07T15:29:33.680Z,5.74
2023-01-07T15:32:34.762Z,5.64
2023-01-07T15:35:30.915Z,5.44
2023-01-07T15:38:44.231Z,5.26
2023-01-07T15:41:39.093Z,5.37
2023-01-07T15:44:31.229Z,5.25
2023-01-07T15:47:35.713Z,5.08
2023-01-07T15:50:33.862Z,4.86
2023-01-07T15:53:18.641Z,4.86
2023-01-07T15:56:18.393Z,4.84
2023-01-07T15:59:02.005Z,4.73
2023-01-07T16:01:47.897Z,4.70
2023-01-07T16:04:36.117Z,4.69
2023-01-07T16:07:29.676Z,4.55
2023-01-07T16:10:09.346Z,4.56
2023-01-07T16:13:01.124Z,4.62
2023-01-07T16:15:59.396Z,4.66
2023-01-07T16:18:39.789Z,4.72
2023-01-07T16:21:19.419Z,4.82
2023-01-07T16:23:58.029Z,4.84
2023-01-07T16:26:40.695Z,4.88
2023-01-07T16:29:29.896Z,4.84
2023-01-07T16:32:05.611Z,4.97
2023-01-07T16:34:54.594Z,4.91
2023-01-07T16:37:37.665Z,4.93
2023-01-07T16:40:37.988Z,4.92
2023-01-07T16:43:46.979Z,4.85
2023-01-07T16:46:42.916Z,4.71
2023-01-07T16:49:26.739Z,4.75
2023-01-07T16:52:14.230Z,4.78
2023-01-07T16:54:57.318Z,4.79
2023-01-07T16:57:48.117Z,4.81
2023-01-07T17:00:34.910Z,4.75
2023-01-07T17:03:18.103Z,4.71
2023-01-07T17:06:16.999Z,4.78
2023-01-07T17:08:56.745Z,4.81
2023-01-07T17:11:39.686Z,4.89
2023-01-07T17:14:39.881Z,4.87
2023-01-07T17:17:36.671Z,4.82
2023-01-07T17:20:35.704Z,4.87
2023-01-07T17:23:33.135Z,4.72
2023-01-07T17:26:25.961Z,4.67
2023-01-07T17:29:12.984Z,4.89
2023-01-07T17:31:53.524Z,4.85
2023-01-07T17:34:38.915Z,4.81
2023-01-07T17:37:21.567Z,4.91
2023-01-07T17:40:08.666Z,4.96
2023-01-07T17:43:06.219Z,5.08
2023-01-07T17:45:49.683Z,4.99
2023-01-07T17:48:29.014Z,5.07
2023-01-07T17:51:07.354Z,4.94
2023-01-07T17:53:52.832Z,4.88
2023-01-07T17:56:34.024Z,5.00
2023-01-07T17:59:09.873Z,5.06
2023-01-07T18:01:51.385Z,5.04
2023-01-07T18:04:36.774Z,5.09
2023-01-07T18:07:22.204Z,5.08
2023-01-07T18:10:01.522Z,5.13
2023-01-07T18:12:49.862Z,5.05
2023-01-07T18:15:36.346Z,5.06
2023-01-07T18:18:14.106Z,5.08
2023-01-07T18:21:00.291Z,5.11
2023-01-07T18:23:49.200Z,5.07
2023-01-07T18:26:25.975Z,5.20
2023-01-07T18:29:07.619Z,5.27
2023-01-07T18:31:51.791Z,5.26
2023-01-07T18:34:37.347Z,5.13
2023-01-07T18:37:18.628Z,5.04
2023-01-07T18:40:07.963Z,5.07
2023-01-07T18:42:49.906Z,5.02
2023-01-07T18:45:24.327Z,5.02
2023-01-07T18:48:05.110Z,5.08
2023-01-07T18:50:49.363Z,5.15
2023-01-07T18:53:31.669Z,5.16
2023-01-07T18:56:12.669Z,5.13
2023-01-07T18:58:55.242Z,5.23
2023-01-07T19:01:39.030Z,5.21
2023-01-07T19:04:28.258Z,5.11
2023-01-07T19:07:08.919Z,5.11
2023-01-07T19:09:49.440Z,5.09
2023-01-07T19:12:36.245Z,5.21
2023-01-07T19:15:20.801Z,5.11
2023-01-07T19:18:04.986Z,5.18
2023-01-07T19:20:56.675Z,5.14
2023-01-07T19:23:43.016Z,5.18
2023-01-07T19:26:20.908Z,5.26
2023-01-07T19:29:01.321Z,5.33
2023-01-07T19:31:46.592Z,5.19
2023-01-07T19:34:28.712Z,5.20
2023-01-07T19:37:01.612Z,5.14
2023-01-07T19:39:42.516Z,5.07
2023-01-07T19:42:28.107Z,5.09
2023-01-07T19:45:09.970Z,5.23
2023-01-07T19:47:50.717Z,5.14
2023-01-07T19:50:26.717Z,5.18
2023-01-07T19:53:06.319Z,5.18
2023-01-07T19:55:52.844Z,5.19
2023-01-07T19:58:34.398Z,5.26
2023-01-07T20:01:16.880Z,5.42
2023-01-07T20:03:59.321Z,5.47
2023-01-07T20:06:48.076Z,5.25
2023-01-07T20:09:35.510Z,5.29
2023-01-07T20:12:08.215Z,5.26
2023-01-07T20:15:04.437Z,5.26
2023-01-07T20:17:43.265Z,5.14
2023-01-07T20:20:15.768Z,5.24
2023-01-07T20:22:55.661Z,5.34
2023-01-07T20:25:40.712Z,5.42
2023-01-07T20:28:18.514Z,5.39
2023-01-07T20:30:50.037Z,5.33
2023-01-07T20:33:37.095Z,5.31
2023-01-07T20:36:19.164Z,5.27
2023-01-07T20:39:03.283Z,5.26
2023-01-07T20:41:43.607Z,5.31
2023-01-07T20:44:29.001Z,5.35
2023-01-07T20:47:08.193Z,5.33
2023-01-07T20:49:40.655Z,5.39
2023-01-07T20:52:31.230Z,5.46
2023-01-07T20:55:07.576Z,5.54
2023-01-07T20:57:41.047Z,5.63
2023-01-07T21:00:22.292Z,5.50
2023-01-07T21:02:55.224Z,5.41
2023-01-07T21:05:32.893Z,5.37
2023-01-07T21:08:12.995Z,5.37
2023-01-07T21:10:56.390Z,5.46
2023-01-07T21:13:32.775Z,5.51
2023-01-07T21:16:14.489Z,5.50
2023-01-07T21:18:44.363Z,5.49
2023-01-07T21:21:26.669Z,5.46
2023-01-07T21:24:17.284Z,5.59
2023-01-07T21:27:07.695Z,5.57
2023-01-07T21:29:45.674Z,5.57
2023-01-07T21:32:26.414Z,5.41
2023-01-07T21:35:01.980Z,5.42
2023-01-07T21:37:39.628Z,5.54
2023-01-07T21:40:14.929Z,5.59
2023-01-07T21:42:55.709Z,5.49
2023-01-07T21:45:40.975Z,5.42
2023-01-07T21:48:33.667Z,5.51
2023-01-07T21:51:16.438Z,5.55
2023-01-07T21:54:00.216Z,5.58
2023-01-07T21:56:36.592Z,5.53
2023-01-07T21:59:17.101Z,5.56
2023-01-07T22:01:55.532Z,5.70
2023-01-07T22:04:40.820Z,5.79
2023-01-07T22:07:25.995Z,5.75
2023-01-07T22:10:09.899Z,5.71
2023-01-07T22:12:52.730Z,5.71
2023-01-07T22:15:34.163Z,5.72
2023-01-07T22:18:15.592Z,5.71
2023-01-07T22:21:04.242Z,5.70
2023-01-07T22:23:46.629Z,5.73
2023-01-07T22:26:28.459Z,5.76
2023-01-07T22:29:18.658Z,5.82
2023-01-07T22:31:56.065Z,5.83
2023-01-07T22:34:42.011Z,5.86
2023-01-07T22:37:26.755Z,5.76
2023-01-07T22:40:21.566Z,5.82
2023-01-07T22:43:01.166Z,5.81
2023-01-07T22:45:43.222Z,5.88
2023-01-07T22:48:31.661Z,5.75
2023-01-07T22:51:17.319Z,5.86
2023-01-07T22:53:59.540Z,5.93
2023-01-07T22:56:35.331Z,5.78
2023-01-07T22:59:08.067Z,5.78
2023-01-07T23:01:47.612Z,5.78
2023-01-07T23:04:32.056Z,5.73
2023-01-07T23:07:10.732Z,5.76
2023-01-07T23:09:51.637Z,5.71
2023-01-07T23:12:32.334Z,5.72
2023-01-07T23:15:12.961Z,5.69
2023-01-07T23:18:00.317Z,5.74
2023-01-07T23:20:47.503Z,5.66
2023-01-07T23:23:28.155Z,5.66
2023-01-07T23:26:09.639Z,5.65
2023-01-07T23:28:44.951Z,5.64
2023-01-07T23:31:22.142Z,5.54
2023-01-07T23:34:03.443Z,5.52
2023-01-07T23:36:46.624Z,5.62
2023-01-07T23:39:29.842Z,5.63
2023-01-07T23:42:10.405Z,5.63
2023-01-07T23:44:53.986Z,5.65
2023-01-07T23:47:32.158Z,5.59
2023-01-07T23:50:12.962Z,5.70
2023-01-07T23:52:53.151Z,5.72
2023-01-07T23:55:47.934Z,5.72
2023-01-07T23:58:24.628Z,5.57
